Time;durP1;ratioP1;P1;durP2;ratioP2;P2;SDS_P1;SDS_P2;PMS_P1;PMS_P2;Temp;Humidity;BMP_temperature;BMP_pressure;BME280_temperature;BME280_humidity;BME280_pressure;Samples;Min_cycle;Max_cycle;Signal;HPM_P1;HPM_P2
2022/08/11 00:00:12;;;;;;;9.48;4.20;;;17.50;99.90;;;;;;5104763;28;20128;-76
2022/08/11 00:02:42;;;;;;;7.93;4.10;;;17.40;99.90;;;;;;5114754;28;20043;-75
2022/08/11 00:05:14;;;;;;;10.82;4.13;;;17.40;99.90;;;;;;5115830;28;20088;-76
2022/08/11 00:07:45;;;;;;;8.98;3.90;;;17.40;99.90;;;;;;5096451;28;20491;-75
2022/08/11 00:10:27;;;;;;;9.18;4.18;;;17.30;99.90;;;;;;5114553;28;20044;-75
2022/08/11 00:12:56;;;;;;;9.63;3.72;;;17.30;99.90;;;;;;5097325;28;20047;-76
2022/08/11 00:15:27;;;;;;;8.02;3.80;;;17.30;99.90;;;;;;5115789;28;20139;-75
2022/08/11 00:18:01;;;;;;;8.90;4.22;;;17.20;99.90;;;;;;5115116;28;20035;-76
2022/08/11 00:20:32;;;;;;;7.72;4.13;;;17.20;99.90;;;;;;5131509;27;20040;-76
2022/08/11 00:23:05;;;;;;;12.55;4.30;;;17.20;99.90;;;;;;5117589;27;20047;-75
2022/08/11 00:25:38;;;;;;;10.05;4.90;;;17.20;99.90;;;;;;5113123;27;20048;-77
2022/08/11 00:28:21;;;;;;;8.77;4.38;;;17.10;99.90;;;;;;5115848;28;20142;-76
2022/08/11 00:30:47;;;;;;;8.13;4.35;;;17.10;99.90;;;;;;5109661;27;20115;-76
2022/08/11 00:33:14;;;;;;;10.68;4.55;;;17.10;99.90;;;;;;5109431;27;20039;-75
2022/08/11 00:35:39;;;;;;;9.13;4.53;;;17.00;99.90;;;;;;5143693;27;20389;-75
2022/08/11 00:38:06;;;;;;;11.63;5.17;;;17.00;99.90;;;;;;5112994;27;20094;-75
2022/08/11 00:40:43;;;;;;;8.60;4.28;;;17.00;99.90;;;;;;5128033;27;20097;-75
2022/08/11 00:43:09;;;;;;;11.40;4.97;;;16.90;99.90;;;;;;5116603;28;20047;-75
2022/08/11 00:45:41;;;;;;;10.35;5.00;;;16.90;99.90;;;;;;5100418;27;20197;-77
2022/08/11 00:48:33;;;;;;;8.88;5.00;;;16.90;99.90;;;;;;5151696;27;20138;-75
2022/08/11 00:51:14;;;;;;;10.40;5.57;;;16.80;99.90;;;;;;5135151;27;20491;-75
2022/08/11 00:54:20;;;;;;;9.70;5.60;;;16.80;99.90;;;;;;5116725;27;20097;-76
2022/08/11 00:57:08;;;;;;;8.40;5.35;;;16.80;99.90;;;;;;5135735;27;20122;-74
2022/08/11 00:59:54;;;;;;;10.52;5.80;;;16.70;99.90;;;;;;5115620;28;20082;-75
2022/08/11 01:02:22;;;;;;;9.05;5.30;;;16.70;99.90;;;;;;5130668;27;20433;-75
2022/08/11 01:05:15;;;;;;;11.50;5.40;;;16.70;99.90;;;;;;5121964;27;20079;-76
2022/08/11 01:08:07;;;;;;;9.13;5.85;;;16.70;99.90;;;;;;5116321;27;20050;-81
2022/08/11 01:11:28;;;;;;;15.45;5.78;;;16.60;99.90;;;;;;5135155;27;20044;-75
2022/08/11 01:14:22;;;;;;;13.07;6.25;;;16.60;99.90;;;;;;5110922;27;20047;-76
2022/08/11 01:16:51;;;;;;;12.00;6.85;;;16.50;99.90;;;;;;5134984;27;20042;-76
2022/08/11 01:19:51;;;;;;;9.52;6.13;;;16.50;99.90;;;;;;5134819;27;20038;-74
2022/08/11 01:22:22;;;;;;;13.70;6.60;;;16.40;99.90;;;;;;5116144;27;20063;-75
2022/08/11 01:25:25;;;;;;;12.88;6.32;;;16.40;99.90;;;;;;5115024;27;20095;-75
2022/08/11 01:28:18;;;;;;;10.73;6.60;;;16.40;99.90;;;;;;5134272;27;20097;-75
2022/08/11 01:31:02;;;;;;;12.20;6.47;;;16.30;99.90;;;;;;5133553;27;20086;-77
2022/08/11 01:33:45;;;;;;;13.25;6.50;;;16.30;99.90;;;;;;5099534;27;20459;-74
2022/08/11 01:36:26;;;;;;;13.80;6.80;;;16.30;99.90;;;;;;5097030;28;20047;-75
2022/08/11 01:39:29;;;;;;;13.35;6.60;;;16.30;99.90;;;;;;5103488;27;20064;-74
2022/08/11 01:45:29;;;;;;;15.63;7.18;;;16.20;99.90;;;;;;5115121;27;20051;-73
2022/08/11 01:48:14;;;;;;;11.85;7.15;;;16.20;99.90;;;;;;5115556;28;20127;-74
2022/08/11 01:51:05;;;;;;;11.80;7.13;;;16.20;99.90;;;;;;5094611;28;20123;-73
2022/08/11 01:54:12;;;;;;;13.45;6.90;;;16.20;99.90;;;;;;5092535;28;20066;-74
2022/08/11 01:56:48;;;;;;;10.95;6.15;;;16.10;99.90;;;;;;5103009;27;20116;-76
2022/08/11 01:59:14;;;;;;;11.35;6.47;;;16.10;99.90;;;;;;5112539;28;20132;-76
2022/08/11 02:02:17;;;;;;;11.13;6.38;;;16.10;99.90;;;;;;5111631;28;20093;-76
2022/08/11 02:05:01;;;;;;;12.30;6.28;;;16.00;99.90;;;;;;5112468;28;20093;-77
2022/08/11 02:07:59;;;;;;;12.50;6.47;;;16.00;99.90;;;;;;5113001;28;20043;-75
2022/08/11 02:14:05;;;;;;;11.57;6.20;;;15.90;99.90;;;;;;5101850;28;20044;-75
2022/08/11 02:17:11;;;;;;;10.93;6.47;;;15.90;99.90;;;;;;5081151;28;20084;-75
2022/08/11 02:26:02;;;;;;;16.15;7.40;;;15.90;99.90;;;;;;5111856;28;20050;-75
2022/08/11 02:28:33;;;;;;;14.15;6.68;;;15.80;99.90;;;;;;5113504;28;20336;-75
2022/08/11 02:34:27;;;;;;;11.32;6.60;;;15.80;99.90;;;;;;5090520;28;20565;-77
2022/08/11 02:37:25;;;;;;;13.35;7.93;;;15.80;99.90;;;;;;5107817;28;20052;-76
2022/08/11 02:39:54;;;;;;;14.50;8.57;;;15.80;99.90;;;;;;5066033;28;20048;-81
2022/08/11 02:42:51;;;;;;;16.92;8.32;;;15.80;99.90;;;;;;5146593;27;1269718;-75
2022/08/11 02:45:47;;;;;;;12.75;7.88;;;15.70;99.90;;;;;;5170062;27;20050;-76
2022/08/11 02:52:04;;;;;;;12.07;7.03;;;15.70;99.90;;;;;;5170943;27;20342;-75
2022/08/11 02:54:36;;;;;;;11.68;6.65;;;15.70;99.90;;;;;;5098169;27;20062;-75
2022/08/11 02:57:37;;;;;;;11.73;7.07;;;15.60;99.90;;;;;;5133402;27;20091;-76
2022/08/11 03:00:07;;;;;;;13.38;7.35;;;15.60;99.90;;;;;;5145030;27;20055;-75
2022/08/11 03:02:47;;;;;;;13.80;7.00;;;15.60;99.90;;;;;;5149450;27;20466;-75
2022/08/11 03:05:25;;;;;;;12.57;7.03;;;15.60;99.90;;;;;;5148779;27;20679;-76
2022/08/11 03:08:06;;;;;;;12.02;7.65;;;15.60;99.90;;;;;;5131659;27;20516;-77
2022/08/11 03:17:13;;;;;;;12.55;7.78;;;15.50;99.90;;;;;;5170326;27;20086;-81
2022/08/11 03:20:16;;;;;;;15.43;7.93;;;15.50;99.90;;;;;;5170939;27;20267;-76
2022/08/11 03:23:07;;;;;;;15.93;8.30;;;15.50;99.90;;;;;;5169813;27;20057;-75
2022/08/11 03:25:45;;;;;;;14.38;7.65;;;15.50;99.90;;;;;;5169594;27;20053;-75
2022/08/11 03:28:27;;;;;;;16.05;8.00;;;15.50;99.90;;;;;;5168890;27;20622;-76
2022/08/11 03:31:04;;;;;;;14.27;8.55;;;15.50;99.90;;;;;;5169940;27;20102;-75
2022/08/11 03:36:52;;;;;;;14.65;8.32;;;15.40;99.90;;;;;;5149729;27;20395;-74
2022/08/11 03:39:46;;;;;;;20.00;9.30;;;15.40;99.90;;;;;;5130970;27;20342;-75
2022/08/11 03:42:11;;;;;;;16.17;9.27;;;15.40;99.90;;;;;;5159333;27;20062;-75
2022/08/11 03:44:48;;;;;;;23.33;9.82;;;15.40;99.90;;;;;;5169463;27;20114;-75
2022/08/11 03:47:35;;;;;;;17.08;9.40;;;15.30;99.90;;;;;;5170406;27;20397;-76
2022/08/11 03:50:23;;;;;;;18.05;8.90;;;15.30;99.90;;;;;;5150593;27;20553;-76
2022/08/11 03:53:16;;;;;;;16.63;8.82;;;15.20;99.90;;;;;;5144663;27;20121;-76
2022/08/11 03:56:31;;;;;;;14.70;8.88;;;15.20;99.90;;;;;;5147038;27;20039;-75
2022/08/11 03:59:16;;;;;;;17.13;8.27;;;15.20;99.90;;;;;;5082526;27;20051;-76
2022/08/11 04:02:16;;;;;;;16.15;9.30;;;15.20;99.90;;;;;;5134799;27;20490;-75
2022/08/11 04:05:19;;;;;;;16.88;9.13;;;15.20;99.90;;;;;;5116946;27;20051;-75
2022/08/11 04:08:30;;;;;;;16.17;9.35;;;15.20;99.90;;;;;;5135264;27;20058;-74
2022/08/11 04:11:14;;;;;;;16.15;9.20;;;15.20;99.90;;;;;;5113265;27;20409;-74
2022/08/11 04:16:52;;;;;;;19.70;9.80;;;15.20;99.90;;;;;;5156487;27;20046;-75
2022/08/11 04:19:36;;;;;;;20.42;10.68;;;15.20;99.90;;;;;;5154079;27;20050;-75
2022/08/11 04:22:24;;;;;;;17.13;10.13;;;15.20;99.90;;;;;;5155583;27;20042;-74
2022/08/11 04:25:09;;;;;;;15.55;9.85;;;15.20;99.90;;;;;;5154827;27;20043;-74
2022/08/11 04:28:09;;;;;;;17.80;10.43;;;15.30;99.90;;;;;;5138316;27;20059;-74
2022/08/11 04:31:01;;;;;;;16.73;9.23;;;15.20;99.90;;;;;;5154984;27;20047;-75
2022/08/11 04:33:39;;;;;;;17.35;10.30;;;15.30;99.90;;;;;;5155536;27;20593;-75
2022/08/11 04:37:30;;;;;;;20.83;11.70;;;15.30;99.90;;;;;;5155498;27;20057;-77
2022/08/11 04:39:26;;;;;;;18.42;10.40;;;15.30;99.90;;;;;;5137136;27;20070;-75
2022/08/11 04:45:32;;;;;;;16.67;10.43;;;15.30;99.90;;;;;;5156344;27;20478;-76
2022/08/11 05:07:32;;;;;;;16.88;10.50;;;15.80;99.90;;;;;;5110706;27;20057;-74
2022/08/11 05:10:09;;;;;;;16.05;10.55;;;15.90;99.90;;;;;;5135935;27;20043;-73
2022/08/11 05:36:21;;;;;;;16.00;9.80;;;16.30;99.90;;;;;;5133799;27;20104;-74
2022/08/11 05:58:39;;;;;;;17.85;10.15;;;16.80;99.90;;;;;;5142058;27;20065;-72
2022/08/11 06:01:06;;;;;;;16.52;9.93;;;16.90;99.90;;;;;;5149573;27;20134;-74
2022/08/11 06:04:12;;;;;;;17.17;10.20;;;16.90;99.90;;;;;;5123243;27;20042;-76
2022/08/11 06:06:21;;;;;;;15.35;9.52;;;17.00;99.90;;;;;;5125750;27;20125;-75
2022/08/11 06:08:47;;;;;;;15.07;9.32;;;17.00;99.90;;;;;;5143755;27;20061;-76
2022/08/11 06:11:17;;;;;;;15.25;9.13;;;17.10;99.90;;;;;;5126242;27;20341;-73
2022/08/11 06:13:45;;;;;;;16.23;10.02;;;17.20;99.90;;;;;;5164193;27;20057;-74
2022/08/11 06:16:20;;;;;;;17.77;10.27;;;17.30;99.90;;;;;;5127795;27;20433;-74
2022/08/11 06:18:47;;;;;;;15.88;9.15;;;17.30;99.90;;;;;;5165962;27;20039;-76
2022/08/11 06:21:15;;;;;;;19.02;9.68;;;17.40;99.90;;;;;;5133997;27;20035;-75
2022/08/11 06:23:42;;;;;;;16.67;9.50;;;17.50;99.90;;;;;;5145020;27;20078;-73
2022/08/11 06:26:12;;;;;;;16.45;9.00;;;17.60;99.90;;;;;;5151212;27;20042;-74
2022/08/11 06:28:45;;;;;;;14.65;9.07;;;17.60;99.90;;;;;;5171626;27;20089;-77
2022/08/11 06:31:24;;;;;;;13.60;8.15;;;17.70;99.90;;;;;;5170322;27;20050;-74
2022/08/11 06:33:49;;;;;;;13.10;7.97;;;17.80;99.90;;;;;;5167909;27;20053;-76
2022/08/11 06:37:02;;;;;;;13.33;7.67;;;17.80;99.90;;;;;;5168160;27;20051;-74
2022/08/11 06:40:00;;;;;;;14.38;7.43;;;18.00;99.90;;;;;;5044860;28;20489;-75
2022/08/11 06:43:01;;;;;;;17.48;6.57;;;18.10;99.90;;;;;;5136250;28;20066;-73
2022/08/11 06:45:41;;;;;;;13.88;6.65;;;18.20;99.90;;;;;;5134298;27;20046;-74
2022/08/11 06:48:19;;;;;;;14.10;6.35;;;18.30;99.90;;;;;;5156896;27;20363;-74
2022/08/11 06:51:13;;;;;;;11.00;6.00;;;18.40;99.90;;;;;;5135476;27;20047;-75
2022/08/11 06:53:49;;;;;;;10.50;6.03;;;18.50;99.90;;;;;;5135180;27;20114;-74
2022/08/11 07:02:15;;;;;;;10.35;5.32;;;18.80;99.90;;;;;;5153254;27;20078;-75
2022/08/11 07:05:12;;;;;;;7.43;5.00;;;19.00;99.90;;;;;;5152612;27;20655;-74
2022/08/11 07:16:03;;;;;;;7.93;3.38;;;19.60;99.90;;;;;;5150838;27;20046;-76
2022/08/11 07:29:53;;;;;;;6.85;2.95;;;20.30;99.90;;;;;;5136684;27;20506;-73
2022/08/11 07:32:28;;;;;;;12.05;3.28;;;20.50;99.90;;;;;;5118285;27;20039;-74
2022/08/11 07:35:16;;;;;;;7.00;2.53;;;20.50;99.90;;;;;;5129954;27;20362;-75
2022/08/11 07:37:49;;;;;;;6.20;2.80;;;20.60;99.90;;;;;;5155676;27;20047;-74
2022/08/11 07:40:21;;;;;;;20.23;3.20;;;20.70;99.90;;;;;;5154341;27;20115;-76
2022/08/11 07:42:49;;;;;;;12.50;2.75;;;20.90;99.90;;;;;;5119558;27;20126;-75
2022/08/11 07:53:32;;;;;;;8.90;2.63;;;21.40;99.90;;;;;;5155010;27;20053;-75
2022/08/11 07:56:01;;;;;;;7.75;2.10;;;;;;;;;;5154001;27;20434;-75
2022/08/11 08:17:56;;;;;;;8.07;2.10;;;22.70;99.90;;;;;;5154753;27;20066;-77
2022/08/11 08:20:27;;;;;;;5.22;1.63;;;22.80;99.90;;;;;;5119889;27;20054;-75
2022/08/11 08:22:58;;;;;;;4.70;1.73;;;22.90;99.90;;;;;;5150785;27;20006;-74
2022/08/11 08:25:25;;;;;;;5.15;1.70;;;22.90;99.90;;;;;;5134549;27;20402;-75
2022/08/11 08:27:55;;;;;;;8.13;1.70;;;23.10;99.90;;;;;;5118653;27;20076;-74
2022/08/11 08:33:08;;;;;;;5.95;1.50;;;23.20;99.90;;;;;;5153121;27;20099;-76
2022/08/11 08:35:36;;;;;;;5.30;1.60;;;23.40;99.90;;;;;;5143569;27;20471;-75
2022/08/11 08:38:03;;;;;;;6.03;1.60;;;23.50;99.90;;;;;;5134581;27;20386;-77
2022/08/11 08:40:29;;;;;;;7.38;1.55;;;23.60;99.90;;;;;;5151440;27;20051;-80
2022/08/11 08:43:01;;;;;;;6.45;1.40;;;23.60;99.90;;;;;;5154241;27;20051;-76
2022/08/11 08:45:33;;;;;;;5.32;1.60;;;23.70;99.90;;;;;;5135038;27;20117;-75
2022/08/11 08:48:07;;;;;;;6.32;1.48;;;23.80;99.90;;;;;;5134175;27;20046;-75
2022/08/11 08:53:28;;;;;;;4.97;1.42;;;24.00;99.90;;;;;;5133602;27;20479;-76
2022/08/11 08:55:57;;;;;;;3.10;1.10;;;24.10;99.90;;;;;;5131956;27;20050;-76
2022/08/11 08:58:24;;;;;;;4.65;1.20;;;24.20;99.90;;;;;;5124534;27;20191;-78
2022/08/11 09:00:53;;;;;;;3.38;1.17;;;24.30;99.90;;;;;;5114110;27;20098;-75
2022/08/11 09:03:22;;;;;;;5.30;1.10;;;24.60;99.90;;;;;;5140968;27;20125;-74
2022/08/11 09:05:48;;;;;;;4.53;1.15;;;24.70;99.90;;;;;;5128834;27;20541;-76
2022/08/11 09:08:18;;;;;;;6.78;1.02;;;24.80;99.90;;;;;;5135335;27;20051;-77
2022/08/11 09:11:48;;;;;;;6.38;1.15;;;24.90;99.00;;;;;;5151627;27;20355;-75
2022/08/11 09:13:35;;;;;;;4.13;1.10;;;25.10;98.30;;;;;;5153306;27;20107;-80
2022/08/11 09:16:05;;;;;;;2.58;0.90;;;25.20;97.80;;;;;;5121948;27;20142;-76
2022/08/11 09:18:32;;;;;;;6.03;0.98;;;25.20;97.60;;;;;;5153901;27;20051;-76
2022/08/11 09:20:58;;;;;;;6.15;1.02;;;25.30;97.60;;;;;;5143132;27;20039;-75
2022/08/11 09:28:54;;;;;;;5.40;0.90;;;25.60;94.30;;;;;;5117017;27;20055;-75
2022/08/11 09:31:21;;;;;;;4.60;0.82;;;25.60;94.20;;;;;;5145431;27;20043;-78
2022/08/11 09:33:50;;;;;;;3.30;0.85;;;25.80;92.70;;;;;;5099668;27;20173;-75
2022/08/11 09:41:49;;;;;;;2.05;1.10;;;25.90;90.20;;;;;;5099293;27;20123;-75
2022/08/11 09:46:59;;;;;;;6.13;1.20;;;26.10;90.00;;;;;;5135884;27;19923;-76
2022/08/11 09:49:26;;;;;;;3.35;1.30;;;26.20;87.30;;;;;;5153236;27;20527;-75
2022/08/11 09:51:53;;;;;;;6.65;2.20;;;26.20;82.90;;;;;;5116982;27;20666;-75
2022/08/11 09:54:21;;;;;;;7.22;2.20;;;26.20;86.40;;;;;;5134737;27;20045;-81
2022/08/11 09:59:32;;;;;;;8.57;1.73;;;26.30;88.00;;;;;;5114131;27;20055;-75
2022/08/11 10:02:01;;;;;;;5.97;1.83;;;26.50;87.30;;;;;;5149945;27;20047;-75
2022/08/11 10:04:34;;;;;;;4.95;1.58;;;26.50;86.90;;;;;;5153178;27;20045;-76
2022/08/11 10:07:05;;;;;;;4.15;1.42;;;26.60;86.40;;;;;;5151334;27;20509;-77
2022/08/11 10:09:58;;;;;;;5.28;1.75;;;26.70;87.30;;;;;;5151684;27;20053;-75
2022/08/11 10:12:41;;;;;;;5.63;1.52;;;26.70;87.40;;;;;;5152524;27;20035;-74
2022/08/11 10:21:01;;;;;;;3.75;1.40;;;27.00;84.20;;;;;;5073458;28;20081;-74
2022/08/11 10:33:59;;;;;;;2.50;1.20;;;27.00;81.20;;;;;;5131936;27;20111;-77
2022/08/11 10:34:42;;;;;;;4.97;1.23;;;27.20;78.80;;;;;;5150804;27;20069;-73
2022/08/11 10:37:09;;;;;;;4.55;1.30;;;27.10;79.50;;;;;;5133169;27;20158;-75
2022/08/11 10:39:37;;;;;;;11.15;1.35;;;27.20;79.70;;;;;;5151105;27;20451;-74
2022/08/11 10:44:52;;;;;;;3.97;1.50;;;27.30;79.10;;;;;;5154159;27;20057;-75
2022/08/11 10:47:34;;;;;;;5.50;1.30;;;27.40;77.40;;;;;;5135365;27;20486;-75
2022/08/11 11:01:11;;;;;;;4.00;1.23;;;27.50;73.50;;;;;;5152269;27;20122;-74
2022/08/11 11:03:37;;;;;;;4.97;1.50;;;27.60;74.70;;;;;;5119240;27;20121;-75
2022/08/11 11:06:24;;;;;;;6.28;1.40;;;27.70;74.60;;;;;;5155517;27;20038;-74
2022/08/11 11:08:55;;;;;;;7.20;1.30;;;27.70;74.70;;;;;;5155739;27;20138;-75
2022/08/11 11:17:54;;;;;;;3.83;1.30;;;27.70;69.70;;;;;;5159734;27;20110;-74
2022/08/11 11:19:58;;;;;;;6.88;1.20;;;27.90;73.00;;;;;;5144187;27;20063;-75
2022/08/11 11:22:37;;;;;;;7.38;1.55;;;27.90;72.70;;;;;;5162695;27;20125;-74
2022/08/11 11:25:20;;;;;;;5.25;1.30;;;28.00;72.00;;;;;;5142717;27;20426;-73
2022/08/11 11:28:00;;;;;;;3.45;1.10;;;28.00;66.40;;;;;;5161962;27;20126;-74
2022/08/11 11:30:35;;;;;;;4.80;1.10;;;28.10;68.80;;;;;;5142332;27;20046;-74
2022/08/11 11:33:21;;;;;;;6.35;1.10;;;28.00;63.20;;;;;;5158680;27;20058;-73
2022/08/11 11:36:00;;;;;;;7.28;1.38;;;28.10;67.90;;;;;;5141470;27;20126;-77
2022/08/11 11:38:28;;;;;;;3.67;1.27;;;28.30;66.60;;;;;;5158847;27;20355;-72
2022/08/11 11:43:55;;;;;;;3.90;1.55;;;28.30;68.30;;;;;;5123441;27;20208;-76
2022/08/11 11:46:23;;;;;;;5.85;1.17;;;28.30;67.70;;;;;;5120729;27;20066;-73
2022/08/11 11:48:49;;;;;;;4.53;1.30;;;28.40;66.60;;;;;;5139130;27;20054;-75
2022/08/11 11:51:15;;;;;;;3.30;1.50;;;28.40;66.20;;;;;;5156453;27;20054;-74
2022/08/11 11:53:43;;;;;;;4.47;1.35;;;28.40;66.10;;;;;;5157776;27;20053;-74
2022/08/11 11:56:10;;;;;;;6.10;1.30;;;28.30;65.90;;;;;;5157340;27;20050;-73
2022/08/11 12:01:24;;;;;;;8.75;1.77;;;28.40;63.60;;;;;;5157405;27;20043;-74
2022/08/11 12:03:52;;;;;;;4.97;1.15;;;28.50;63.40;;;;;;5124653;27;20050;-73
2022/08/11 12:06:22;;;;;;;4.53;1.33;;;28.50;63.70;;;;;;5143236;27;20042;-74
2022/08/11 12:08:52;;;;;;;3.50;1.20;;;28.50;63.10;;;;;;5162479;27;20077;-74
2022/08/11 12:14:06;;;;;;;5.40;1.20;;;28.60;62.30;;;;;;5160519;27;20050;-75
2022/08/11 12:16:35;;;;;;;6.45;1.20;;;28.60;62.90;;;;;;5164054;27;20062;-75
2022/08/11 12:19:02;;;;;;;7.90;1.40;;;28.70;61.40;;;;;;5159728;27;20493;-74
2022/08/11 12:21:29;;;;;;;3.28;1.38;;;28.80;61.90;;;;;;5143794;27;20031;-75
2022/08/11 12:29:18;;;;;;;3.17;1.20;;;28.80;63.30;;;;;;5143228;27;20045;-74
2022/08/11 12:31:45;;;;;;;3.72;1.00;;;28.90;63.10;;;;;;5159645;27;20131;-75
2022/08/11 12:34:14;;;;;;;4.72;1.23;;;29.00;59.60;;;;;;5123392;27;20046;-72
2022/08/11 12:36:49;;;;;;;3.78;0.95;;;29.00;60.90;;;;;;5141509;27;20061;-73
2022/08/11 12:39:19;;;;;;;3.73;1.27;;;29.10;59.30;;;;;;5160429;27;20103;-74
2022/08/11 12:47:19;;;;;;;2.50;0.80;;;29.20;58.60;;;;;;5140940;27;20130;-75
2022/08/11 12:52:44;;;;;;;3.45;1.00;;;29.10;55.50;;;;;;5127425;27;20055;-73
2022/08/11 12:58:14;;;;;;;5.72;1.48;;;29.20;57.00;;;;;;5145576;27;20047;-73
2022/08/11 12:58:16;;;;;;;4.70;1.20;;;29.30;57.40;;;;;;5143618;27;20104;-74
2022/08/11 13:06:19;;;;;;;7.72;1.38;;;29.00;58.10;;;;;;5141720;27;20123;-74
2022/08/11 13:08:46;;;;;;;3.65;1.33;;;29.20;56.00;;;;;;5140707;27;20095;-74
2022/08/11 13:13:59;;;;;;;3.10;1.30;;;29.20;57.00;;;;;;5136612;27;20069;-75
2022/08/11 13:16:27;;;;;;;;;;;29.30;57.40;;;;;;5136915;27;20111;-76
2022/08/11 13:18:54;;;;;;;3.67;1.23;;;29.30;56.10;;;;;;5138321;27;19965;-76
2022/08/11 13:21:21;;;;;;;4.75;1.00;;;29.40;56.60;;;;;;5137193;27;20435;-75
2022/08/11 13:23:51;;;;;;;3.00;1.05;;;29.40;55.50;;;;;;5139394;27;20046;-75
2022/08/11 13:26:17;;;;;;;4.35;1.35;;;29.40;54.80;;;;;;5136601;27;20459;-74
2022/08/11 13:28:43;;;;;;;4.45;1.13;;;29.40;54.40;;;;;;5135620;27;20058;-74
2022/08/11 13:31:10;;;;;;;5.32;1.08;;;29.40;55.70;;;;;;5136982;27;20035;-79
2022/08/11 13:33:52;;;;;;;3.83;1.23;;;29.40;56.00;;;;;;5140734;27;20375;-76
2022/08/11 13:36:21;;;;;;;7.03;1.10;;;29.50;55.70;;;;;;5122497;27;20053;-75
2022/08/11 13:38:48;;;;;;;6.28;1.15;;;29.50;55.90;;;;;;5141152;27;20054;-75
2022/08/11 13:43:58;;;;;;;6.43;1.40;;;29.50;56.10;;;;;;5137726;27;20047;-74
2022/08/11 13:46:26;;;;;;;5.22;1.10;;;29.40;54.70;;;;;;5143913;27;20078;-76
2022/08/11 13:48:55;;;;;;;5.05;1.40;;;29.50;55.70;;;;;;5164533;27;20458;-77
2022/08/11 13:51:29;;;;;;;3.90;1.20;;;29.50;55.70;;;;;;5125316;27;20070;-76
2022/08/11 13:54:21;;;;;;;3.20;1.10;;;29.50;55.60;;;;;;5145047;27;20051;-76
2022/08/11 13:56:51;;;;;;;4.20;1.40;;;29.50;53.80;;;;;;5152699;27;20137;-77
2022/08/11 13:59:21;;;;;;;7.03;1.35;;;29.60;55.30;;;;;;5144199;27;20046;-76
2022/08/11 14:01:52;;;;;;;4.97;1.02;;;29.60;55.20;;;;;;5145930;27;20067;-76
2022/08/11 14:04:38;;;;;;;3.63;1.00;;;29.70;55.10;;;;;;5126870;27;20053;-74
2022/08/11 14:07:07;;;;;;;6.75;1.38;;;29.70;54.40;;;;;;5146396;27;20078;-72
2022/08/11 14:09:39;;;;;;;4.80;1.20;;;29.80;54.50;;;;;;5164038;27;20085;-76
2022/08/11 14:15:18;;;;;;;8.32;1.10;;;29.80;54.50;;;;;;5162466;27;20097;-74
2022/08/11 14:17:50;;;;;;;7.22;1.02;;;29.90;54.20;;;;;;5141050;27;20095;-75
2022/08/11 14:20:18;;;;;;;5.63;1.10;;;29.80;54.30;;;;;;5143875;27;20035;-71
2022/08/11 14:22:45;;;;;;;2.72;1.00;;;29.90;52.20;;;;;;5138996;27;20417;-75
2022/08/11 14:25:15;;;;;;;3.78;1.05;;;29.90;52.20;;;;;;5163975;27;20090;-77
2022/08/11 14:27:43;;;;;;;5.60;0.95;;;29.90;52.40;;;;;;5146228;27;20058;-74
2022/08/11 14:30:53;;;;;;;5.97;1.30;;;29.90;52.30;;;;;;5125523;27;20050;-75
2022/08/11 14:32:56;;;;;;;5.80;0.93;;;29.80;51.80;;;;;;5150153;27;20043;-74
2022/08/11 14:35:26;;;;;;;3.97;0.98;;;29.70;51.60;;;;;;5166825;27;20065;-74
2022/08/11 14:37:54;;;;;;;2.55;1.05;;;29.80;50.20;;;;;;5165896;27;20046;-73
2022/08/11 14:48:36;;;;;;;5.15;1.17;;;29.90;52.20;;;;;;5166106;27;20051;-74
2022/08/11 14:51:04;;;;;;;2.88;0.93;;;29.90;52.00;;;;;;5148229;27;20066;-76
2022/08/11 14:53:31;;;;;;;6.80;0.93;;;29.90;50.80;;;;;;5164599;27;20043;-75
2022/08/11 14:58:42;;;;;;;5.22;1.23;;;29.90;51.40;;;;;;5162820;27;20405;-74
2022/08/11 15:03:08;;;;;;;;;;;30.00;51.20;;;;;;5142817;27;20042;-75
2022/08/11 15:03:56;;;;;;;7.20;1.00;;;30.00;52.30;;;;;;5159998;27;19919;-74
2022/08/11 15:06:24;;;;;;;3.28;1.27;;;29.90;51.80;;;;;;5162333;27;20057;-75
2022/08/11 15:08:53;;;;;;;3.50;0.70;;;29.90;51.50;;;;;;5144243;27;20111;-77
2022/08/11 15:14:10;;;;;;;4.93;1.10;;;29.80;50.50;;;;;;5162066;27;20047;-75
2022/08/11 15:19:24;;;;;;;5.15;1.05;;;29.80;50.80;;;;;;5145889;27;20047;-75
2022/08/11 15:24:36;;;;;;;6.00;1.05;;;29.90;50.60;;;;;;5160621;27;20450;-76
2022/08/11 15:38:14;;;;;;;4.35;1.20;;;29.80;50.20;;;;;;5125183;28;20051;-77
2022/08/11 15:46:46;;;;;;;5.40;1.10;;;29.90;50.90;;;;;;5159822;27;20047;-77
2022/08/11 15:49:38;;;;;;;4.75;1.05;;;29.80;50.60;;;;;;5151894;27;20123;-75
2022/08/11 15:52:14;;;;;;;6.40;0.90;;;29.80;51.00;;;;;;5163134;27;20474;-76
2022/08/11 15:54:41;;;;;;;;;;;29.90;51.90;;;;;;5164660;27;20130;-77
2022/08/11 16:05:16;;;;;;;3.47;0.95;;;29.80;51.60;;;;;;5116878;27;20444;-77
2022/08/11 16:07:47;;;;;;;7.20;1.30;;;29.80;52.00;;;;;;5134651;27;20057;-74
2022/08/11 16:10:20;;;;;;;6.15;1.02;;;29.70;52.20;;;;;;5134141;27;20403;-75
2022/08/11 16:16:13;;;;;;;7.00;1.42;;;29.80;52.90;;;;;;5125154;27;20474;-75
2022/08/11 16:18:41;;;;;;;5.32;1.08;;;29.70;53.60;;;;;;5154337;27;20055;-74
2022/08/11 16:21:16;;;;;;;4.28;1.40;;;29.70;53.60;;;;;;5134030;27;20440;-76
2022/08/11 16:23:45;;;;;;;7.20;1.58;;;29.60;52.70;;;;;;5112685;27;20133;-74
2022/08/11 16:26:12;;;;;;;3.30;1.30;;;29.60;53.00;;;;;;5128111;27;20521;-76
2022/08/11 16:28:43;;;;;;;5.93;2.40;;;29.60;52.60;;;;;;5151974;27;20061;-74
2022/08/11 16:31:10;;;;;;;5.43;1.10;;;29.40;52.50;;;;;;5155041;27;20447;-75
2022/08/11 16:33:41;;;;;;;6.53;1.20;;;29.40;52.80;;;;;;5153403;27;20051;-75
2022/08/11 16:38:54;;;;;;;8.07;1.30;;;29.40;53.80;;;;;;5136652;27;20046;-75
2022/08/11 16:47:15;;;;;;;4.43;1.15;;;29.30;52.80;;;;;;5134283;27;20461;-80
2022/08/11 16:49:45;;;;;;;5.05;1.25;;;29.20;52.70;;;;;;5135346;27;20054;-77
2022/08/11 16:52:12;;;;;;;4.22;1.10;;;29.10;52.90;;;;;;5136014;27;20051;-76
2022/08/11 16:54:41;;;;;;;6.82;1.35;;;29.10;53.70;;;;;;5151661;27;20069;-79
2022/08/11 17:00:05;;;;;;;5.97;1.40;;;29.10;54.10;;;;;;5149817;27;20081;-77
2022/08/11 17:14:08;;;;;;;6.38;1.35;;;28.80;56.10;;;;;;5157983;27;20083;-77
2022/08/11 17:16:40;;;;;;;6.95;1.60;;;28.70;55.70;;;;;;5160898;27;20043;-77
2022/08/11 17:19:22;;;;;;;6.95;1.55;;;28.70;56.00;;;;;;5165411;27;20054;-75
2022/08/11 17:24:40;;;;;;;6.97;1.48;;;28.40;56.30;;;;;;5144457;27;20050;-75
2022/08/11 17:27:15;;;;;;;2.78;1.20;;;28.40;56.40;;;;;;5160881;27;20158;-78
2022/08/11 17:29:47;;;;;;;5.20;1.40;;;28.40;57.60;;;;;;5162079;27;20077;-76
2022/08/11 17:38:16;;;;;;;3.17;1.30;;;28.20;57.70;;;;;;5161127;27;20098;-76
2022/08/11 17:49:10;;;;;;;5.22;1.40;;;27.90;58.90;;;;;;5162071;27;20082;-78
2022/08/11 17:59:55;;;;;;;4.32;1.55;;;27.60;59.60;;;;;;5131412;27;20483;-74
2022/08/11 18:05:22;;;;;;;4.88;1.35;;;27.50;59.50;;;;;;5153974;27;20046;-76
